Blue Creek, West Virginia
Current Conditions -  °F | °C
As of 7:21 AM on Monday 26 Jan 2015 (Local Time) from KCRW Reporting Station
Haze Haze  
Wind Chill: 39°   Ceiling: 2700
Heat Index: 39°   Visibility: 0.75mi
Dew Point: 38°   Wind: 0mph
Humidity: 96%   Direction: NA
Pressure: 29.63"   Gusts: NA
Location:  38.45°N, 81.46°W
Report Text: KCRW 261221Z 00000KT 3/4SM BR SCT005 OVC027 04/03 A2963 RMK AO2 VLY FG T00390033 RVRNO
Loading
Personal Weather Stations






























Interactive Weather Map New forecast layout! Learn more

10-Day Weather Forecast

Advertisements
Track Severe Weather on mobile